KBDR/BDR METAR and TAF weather

Enter ICAO airport designator
Station Type Date Time Source
KBDR METAR 2018/04/21 20:52 UTC NOAA

KBDR 212052Z 33012G17KT 10SM CLR 17/M08 A3023 RMK AO2 WSHFT 1945 SLP236 T01671083 56024


Station Type Date Time Source
KBDR Decoded METAR 2018/04/21 20:52 UTC NOAA

SIKORSKY MEMORIAL AIRPORT, CT, United States (KBDR) 41-10N 073-08W 7M
Apr 21, 2018 - 04:52 PM EDT / 2018.04.21 2052 UTC
Wind: from the NNW (330 degrees) at 14 MPH (12 KT) gusting to 20 MPH (17 KT):0
Visibility: 10 mile(s):0
Sky conditions: clear
Temperature: 62.1 F (16.7 C)
Dew Point: 17.1 F (-8.3 C)
Relative Humidity: 17%
Pressure (altimeter): 30.23 in. Hg (1023 hPa)
Pressure tendency: 0.07 inches (2.4 hPa) lower than three hours ago
ob: KBDR 212052Z 33012G17KT 10SM CLR 17/M08 A3023 RMK AO2 WSHFT 1945 SLP236 T01671083 56024
cycle: 21

Station Type Date Time Source
KBDR TAF 2018/04/21 20:57 UTC NOAA

TAF
AMD KBDR 211954Z 2120/2218 22012G19KT P6SM SCT250
FM212300 29007KT P6SM SCT250
FM220200 31004KT P6SM SKC
FM221500 27008KT P6SM SKC


Example: see airport list